Time;durP1;ratioP1;P1;durP2;ratioP2;P2;SDS_P1;SDS_P2;PMS_P1;PMS_P2;Temp;Humidity;BMP_temperature;BMP_pressure;BME280_temperature;BME280_humidity;BME280_pressure;Samples;Min_cycle;Max_cycle;Signal;HPM_P1;HPM_P2
2021/05/03 00:01:58;;;;;;;7.78;4.95;;;;;;;5.80;87.61;96924.53;4948748;28;20246;-71
2021/05/03 00:04:25;;;;;;;9.82;5.40;;;;;;;5.84;88.07;96927.84;4938123;28;20658;-73
2021/05/03 00:06:54;;;;;;;9.60;5.20;;;;;;;5.84;87.84;96925.28;4940650;28;20195;-72
2021/05/03 00:09:22;;;;;;;10.85;5.45;;;;;;;5.84;87.92;96925.28;4945198;28;20724;-73
2021/05/03 00:11:49;;;;;;;8.25;5.50;;;;;;;5.79;88.15;96925.47;4946128;28;20199;-72
2021/05/03 00:14:16;;;;;;;8.57;5.20;;;;;;;5.69;87.80;96925.81;4944791;28;20227;-72
2021/05/03 00:16:43;;;;;;;9.85;5.60;;;;;;;5.61;88.03;96927.84;4930165;28;20218;-73
2021/05/03 00:19:10;;;;;;;9.40;5.72;;;;;;;5.58;88.41;96927.94;4948935;28;20586;-72
2021/05/03 00:21:37;;;;;;;7.90;5.50;;;;;;;5.55;88.41;96928.94;4944747;28;20717;-73
2021/05/03 00:24:05;;;;;;;7.13;4.93;;;;;;;5.56;88.58;96929.75;4946539;28;20737;-74
2021/05/03 00:26:33;;;;;;;12.43;5.85;;;;;;;5.53;87.85;96937.63;4947019;28;20192;-77
2021/05/03 00:29:00;;;;;;;8.13;5.38;;;;;;;5.54;88.48;96931.56;4944073;28;20219;-71
2021/05/03 00:31:26;;;;;;;8.45;4.90;;;;;;;5.48;88.94;96937.81;4945859;28;20670;-72
2021/05/03 00:33:54;;;;;;;9.00;5.72;;;;;;;5.40;88.79;96938.97;4940947;28;20238;-73
2021/05/03 00:36:20;;;;;;;8.77;5.72;;;;;;;5.42;89.07;96937.16;4948255;28;20183;-70
2021/05/03 00:38:47;;;;;;;8.52;5.05;;;;;;;5.40;89.16;96938.97;4945491;28;20253;-73
2021/05/03 00:41:14;;;;;;;9.05;5.47;;;;;;;5.25;89.72;96929.19;4947155;28;20821;-73
2021/05/03 00:43:42;;;;;;;10.00;5.53;;;;;;;5.23;89.36;96931.81;4945615;28;20614;-74
2021/05/03 00:46:09;;;;;;;8.65;5.05;;;;;;;5.24;89.36;96937.84;4941070;28;20531;-73
2021/05/03 00:48:36;;;;;;;7.85;5.45;;;;;;;5.11;89.32;96918.53;4944294;28;20607;-74
2021/05/03 00:51:03;;;;;;;8.32;5.30;;;;;;;5.28;89.12;96941.97;4940563;28;20228;-73
2021/05/03 00:53:30;;;;;;;13.02;6.32;;;;;;;5.30;88.96;96937.63;4940029;28;20203;-71
2021/05/03 00:55:57;;;;;;;8.02;5.22;;;;;;;5.22;89.84;96944.75;4921620;28;20595;-72
2021/05/03 00:58:24;;;;;;;10.05;5.05;;;;;;;5.11;90.25;96946.91;4941994;28;20659;-73
2021/05/03 01:00:52;;;;;;;9.18;5.72;;;;;;;5.19;89.70;96939.72;4942077;28;20209;-72
2021/05/03 01:03:19;;;;;;;8.18;5.22;;;;;;;5.15;89.68;96933.84;4948294;28;20235;-72
2021/05/03 01:05:45;;;;;;;9.68;6.28;;;;;;;5.14;89.40;96936.47;4947440;28;20600;-72
2021/05/03 01:08:12;;;;;;;13.38;6.07;;;;;;;5.12;89.79;96938.25;4952024;28;20199;-72
2021/05/03 01:10:39;;;;;;;7.25;4.88;;;;;;;5.02;89.96;96936.91;4941752;28;20357;-70
2021/05/03 01:13:06;;;;;;;12.18;5.00;;;;;;;4.97;90.03;96943.97;4944422;28;20203;-72
2021/05/03 01:15:33;;;;;;;7.05;4.82;;;;;;;5.02;89.99;96939.50;4939233;28;20273;-73
2021/05/03 01:18:04;;;;;;;10.00;5.07;;;;;;;4.97;89.34;96939.66;4944617;28;20539;-73
2021/05/03 01:20:32;;;;;;;8.40;5.75;;;;;;;4.93;89.51;96934.63;4950653;28;20223;-71
2021/05/03 01:23:01;;;;;;;10.45;5.53;;;;;;;4.95;88.98;96941.41;4946556;28;20188;-73
2021/05/03 01:25:31;;;;;;;10.82;5.07;;;;;;;4.89;89.41;96938.22;4942028;28;20878;-72
2021/05/03 01:27:58;;;;;;;13.85;5.85;;;;;;;4.87;89.48;96948.59;4947179;28;20201;-73
2021/05/03 01:30:30;;;;;;;8.15;5.55;;;;;;;4.86;89.96;96940.91;4936342;28;20223;-72
2021/05/03 01:32:58;;;;;;;8.85;5.55;;;;;;;4.85;90.02;96934.06;4940474;28;20278;-72
2021/05/03 01:35:26;;;;;;;8.45;5.90;;;;;;;4.78;89.83;96932.56;4940599;28;20277;-71
2021/05/03 01:37:54;;;;;;;10.80;6.57;;;;;;;4.79;90.53;96940.28;4940419;28;20735;-72
2021/05/03 01:40:23;;;;;;;9.07;6.05;;;;;;;4.83;90.19;96933.28;4953627;28;20689;-71
2021/05/03 01:42:50;;;;;;;12.75;5.40;;;;;;;4.87;90.35;96937.44;4942819;28;20701;-71
2021/05/03 01:45:20;;;;;;;11.27;5.60;;;;;;;4.83;90.10;96941.00;4948000;28;20566;-71
2021/05/03 01:47:46;;;;;;;19.95;5.05;;;;;;;4.79;90.61;96939.44;4946482;28;20195;-71
2021/05/03 01:50:15;;;;;;;8.20;5.30;;;;;;;4.82;90.66;96937.59;4949707;28;20682;-71
2021/05/03 01:52:43;;;;;;;7.35;5.40;;;;;;;4.78;90.90;96940.31;4937338;28;20226;-71
2021/05/03 01:55:11;;;;;;;9.68;5.10;;;;;;;4.74;90.60;96941.31;4938883;28;20255;-71
2021/05/03 01:57:39;;;;;;;8.00;5.20;;;;;;;4.60;90.41;96930.63;4943872;28;20764;-72
2021/05/03 02:00:10;;;;;;;7.43;4.75;;;;;;;4.66;90.29;96943.31;4946289;28;20226;-72
2021/05/03 02:03:02;;;;;;;9.15;5.53;;;;;;;4.62;90.17;96940.00;4942028;28;20327;-70
2021/05/03 02:05:30;;;;;;;9.65;6.10;;;;;;;4.66;90.27;96927.84;4948741;28;20234;-71
2021/05/03 02:07:58;;;;;;;8.65;5.45;;;;;;;4.79;90.08;96942.03;4950200;28;20500;-71
2021/05/03 02:10:27;;;;;;;8.45;5.15;;;;;;;4.86;90.41;96946.91;4943247;28;20266;-71
2021/05/03 02:12:55;;;;;;;13.15;5.80;;;;;;;4.83;90.89;96947.03;4937646;28;20214;-73
2021/05/03 02:15:23;;;;;;;10.43;5.38;;;;;;;4.80;90.58;96943.69;4947587;28;20218;-71
2021/05/03 02:17:50;;;;;;;7.68;3.95;;;;;;;4.64;89.97;96937.38;4925352;28;20261;-72
2021/05/03 02:20:18;;;;;;;6.90;4.63;;;;;;;4.58;88.57;96945.31;4942426;28;20614;-71
2021/05/03 02:22:47;;;;;;;6.80;4.22;;;;;;;4.37;89.09;96925.41;4933696;28;20246;-72
2021/05/03 02:25:14;;;;;;;11.93;5.55;;;;;;;4.45;89.57;96938.88;4937940;28;20546;-71
2021/05/03 02:27:46;;;;;;;11.48;6.00;;;;;;;4.55;89.84;96935.09;4937702;28;20260;-73
2021/05/03 02:30:16;;;;;;;10.35;5.95;;;;;;;4.49;90.45;96930.13;4942789;28;20223;-72
2021/05/03 02:32:44;;;;;;;11.60;6.70;;;;;;;4.56;90.91;96939.34;4941275;28;20219;-71
2021/05/03 02:35:15;;;;;;;10.07;6.00;;;;;;;4.55;90.61;96940.25;4925899;28;20238;-72
2021/05/03 02:37:42;;;;;;;10.23;6.07;;;;;;;4.56;90.93;96936.78;4948487;28;20198;-74
2021/05/03 02:40:11;;;;;;;7.38;5.47;;;;;;;4.60;89.64;96939.22;4926277;28;20223;-71
2021/05/03 02:42:38;;;;;;;8.95;5.88;;;;;;;4.70;88.90;96940.59;4945017;28;20615;-72
2021/05/03 02:45:06;;;;;;;13.18;6.25;;;;;;;4.72;88.70;96935.38;4948323;28;20242;-71
2021/05/03 02:47:34;;;;;;;10.05;6.20;;;;;;;4.82;88.65;96936.75;4937010;28;20666;-71
2021/05/03 02:50:01;;;;;;;11.13;6.30;;;;;;;4.76;87.93;96939.53;4942282;28;20287;-71
2021/05/03 02:52:28;;;;;;;13.77;6.60;;;;;;;4.72;88.25;96941.38;4940189;28;20743;-71
2021/05/03 02:54:55;;;;;;;9.25;5.70;;;;;;;4.74;88.12;96946.47;4940748;28;20584;-72
2021/05/03 02:57:22;;;;;;;9.15;5.57;;;;;;;4.68;88.38;96941.53;4944458;28;20631;-71
2021/05/03 02:59:49;;;;;;;11.02;5.80;;;;;;;4.66;88.70;96943.31;4939270;28;20270;-71
2021/05/03 03:02:16;;;;;;;10.15;6.00;;;;;;;4.54;88.64;96943.72;4938035;28;20191;-72
2021/05/03 03:04:43;;;;;;;11.30;6.18;;;;;;;4.54;88.26;96948.88;4942807;28;20233;-71
2021/05/03 03:07:10;;;;;;;10.18;5.95;;;;;;;4.54;88.58;96951.44;4943418;28;20199;-71
2021/05/03 03:09:38;;;;;;;12.23;5.88;;;;;;;4.53;88.73;96950.63;4943358;28;20315;-71
2021/05/03 03:12:09;;;;;;;11.65;5.35;;;;;;;4.49;89.31;96955.91;4942702;28;20207;-72
2021/05/03 03:14:36;;;;;;;9.73;5.55;;;;;;;4.43;89.48;96948.41;4945596;28;20765;-71
2021/05/03 03:17:03;;;;;;;9.63;6.05;;;;;;;4.38;89.35;96947.69;4943908;28;20253;-71
2021/05/03 03:19:30;;;;;;;10.15;6.15;;;;;;;4.37;89.37;96951.16;4946217;28;20215;-71
2021/05/03 03:21:58;;;;;;;11.82;5.38;;;;;;;4.38;89.25;96948.53;4936848;28;20199;-70
2021/05/03 03:24:25;;;;;;;12.18;5.78;;;;;;;4.40;88.74;96945.91;4939244;28;20301;-72
2021/05/03 03:26:52;;;;;;;8.20;5.45;;;;;;;4.25;89.30;96946.38;4944091;28;20281;-72
2021/05/03 03:29:19;;;;;;;7.53;5.32;;;;;;;4.24;89.60;96955.00;4943608;28;20222;-71
2021/05/03 03:31:45;;;;;;;8.02;5.55;;;;;;;4.25;89.90;96951.53;4944700;28;20270;-73
2021/05/03 03:34:12;;;;;;;10.75;6.40;;;;;;;4.21;90.19;96952.53;4947244;28;20214;-71
2021/05/03 03:36:39;;;;;;;10.10;5.97;;;;;;;4.24;90.40;96955.00;4941667;28;20662;-72
2021/05/03 03:39:08;;;;;;;11.32;6.35;;;;;;;4.24;89.87;96960.16;4942241;28;20321;-72
2021/05/03 03:41:35;;;;;;;8.73;5.38;;;;;;;4.24;89.57;96960.16;4942714;28;20250;-74
2021/05/03 03:44:03;;;;;;;9.90;5.68;;;;;;;4.23;89.11;96958.50;4951851;28;20232;-72
2021/05/03 03:46:30;;;;;;;8.90;5.85;;;;;;;4.42;88.74;96969.88;4940049;28;20255;-72
2021/05/03 03:48:57;;;;;;;10.98;5.80;;;;;;;4.40;88.32;96971.66;4950563;28;20697;-72
2021/05/03 03:51:24;;;;;;;12.23;6.15;;;;;;;4.35;88.21;96976.16;4944987;28;20580;-72
2021/05/03 03:53:52;;;;;;;13.30;7.05;;;;;;;4.21;88.62;96958.53;4941526;28;20266;-71
2021/05/03 03:56:21;;;;;;;9.95;5.75;;;;;;;4.11;88.87;96969.16;4952024;28;20190;-70
2021/05/03 03:58:49;;;;;;;11.05;6.25;;;;;;;4.15;89.04;96981.06;4925750;28;20226;-71
2021/05/03 04:01:16;;;;;;;9.48;5.60;;;;;;;4.06;89.81;96982.19;4947544;28;20258;-70
2021/05/03 04:03:47;;;;;;;9.68;5.38;;;;;;;4.07;89.83;96977.88;4944544;28;20223;-72
2021/05/03 04:06:21;;;;;;;11.52;5.28;;;;;;;4.07;89.98;96988.19;4944056;28;20639;-72
2021/05/03 04:08:53;;;;;;;12.95;6.05;;;;;;;4.05;89.49;96993.38;4939564;28;20711;-71
2021/05/03 04:11:33;;;;;;;7.32;4.88;;;;;;;4.05;89.55;96985.66;4938845;28;20233;-72
2021/05/03 04:24:54;;;;;;;9.20;5.40;;;;;;;4.04;90.24;96995.97;4947836;28;20230;-71
2021/05/03 04:27:21;;;;;;;16.65;6.25;;;;;;;4.13;90.28;97003.47;4948379;28;20552;-70
2021/05/03 04:29:48;;;;;;;12.02;5.82;;;;;;;4.03;90.11;97005.47;4953800;28;20226;-70
2021/05/03 04:32:15;;;;;;;7.28;4.82;;;;;;;3.98;90.10;96998.75;4949167;28;20202;-70
2021/05/03 04:34:43;;;;;;;16.63;6.10;;;;;;;4.04;90.71;97019.16;4937552;28;20289;-71
2021/05/03 04:37:10;;;;;;;8.50;5.68;;;;;;;4.06;90.45;97005.34;4940319;28;20195;-70
2021/05/03 04:39:37;;;;;;;10.25;4.63;;;;;;;4.15;90.35;97012.78;4944104;28;20642;-70
2021/05/03 04:42:05;;;;;;;8.65;5.45;;;;;;;4.21;90.29;97011.78;4944447;28;20677;-71
2021/05/03 04:44:33;;;;;;;12.50;6.60;;;;;;;4.27;90.02;97011.56;4939350;28;20310;-74
2021/05/03 04:47:00;;;;;;;7.88;5.15;;;;;;;4.24;89.99;97011.69;4948455;28;20198;-72
2021/05/03 04:49:27;;;;;;;8.80;5.65;;;;;;;4.21;90.88;97012.63;4952097;28;20244;-71
2021/05/03 04:51:54;;;;;;;15.02;5.40;;;;;;;4.28;90.54;97015.88;4946237;28;20215;-72
2021/05/03 04:54:21;;;;;;;9.15;5.45;;;;;;;4.36;89.68;97009.56;4949353;28;20223;-72
2021/05/03 04:56:48;;;;;;;9.68;5.20;;;;;;;4.31;89.61;97006.31;4940384;28;20281;-71
2021/05/03 04:59:14;;;;;;;9.00;5.30;;;;;;;4.34;89.22;97008.78;4944387;28;20221;-69
2021/05/03 05:01:43;;;;;;;9.07;5.45;;;;;;;4.40;89.55;97020.63;4924344;28;20963;-70
2021/05/03 05:04:10;;;;;;;10.32;5.60;;;;;;;4.30;90.20;96996.03;4948032;28;20747;-70
2021/05/03 05:06:36;;;;;;;9.80;6.00;;;;;;;4.61;89.29;97017.38;4951756;28;20194;-69
2021/05/03 05:09:05;;;;;;;10.25;5.70;;;;;;;4.70;89.10;97017.91;4945960;28;20226;-69
2021/05/03 05:11:32;;;;;;;9.13;6.03;;;;;;;4.65;88.74;97006.09;4942191;28;20661;-71
2021/05/03 05:13:59;;;;;;;9.68;5.80;;;;;;;4.74;89.09;97018.66;4940112;28;20226;-72
2021/05/03 05:16:27;;;;;;;11.80;5.97;;;;;;;4.86;88.18;97018.28;4943005;28;20202;-71
2021/05/03 05:18:55;;;;;;;10.13;6.10;;;;;;;5.02;88.12;97030.59;4944288;28;20199;-71
2021/05/03 05:21:22;;;;;;;10.55;6.10;;;;;;;4.95;87.36;97015.38;4942326;28;20199;-73
2021/05/03 05:23:49;;;;;;;10.80;6.47;;;;;;;5.16;87.23;97018.06;4943985;28;20666;-71
2021/05/03 05:26:16;;;;;;;9.50;6.53;;;;;;;5.26;86.67;97016.88;4939391;28;20781;-71
2021/05/03 05:28:43;;;;;;;8.32;5.70;;;;;;;5.40;86.11;97026.72;4943270;28;20222;-71
2021/05/03 05:31:10;;;;;;;11.45;6.30;;;;;;;5.62;85.38;97030.22;4943702;28;20224;-71
2021/05/03 05:33:37;;;;;;;17.80;6.20;;;;;;;5.75;83.50;97029.72;4945205;28;20242;-72
2021/05/03 05:36:06;;;;;;;12.00;5.82;;;;;;;5.93;82.37;97028.22;4939424;28;20183;-71
2021/05/03 05:38:35;;;;;;;9.45;6.20;;;;;;;6.14;81.47;97027.44;4946187;28;20469;-71
2021/05/03 05:41:02;;;;;;;9.77;5.85;;;;;;;6.24;80.59;97029.63;4950784;28;20183;-71
2021/05/03 05:43:29;;;;;;;8.30;5.63;;;;;;;6.33;80.32;97028.44;4946897;28;20559;-71
2021/05/03 05:45:56;;;;;;;12.45;6.35;;;;;;;6.47;79.89;97033.91;4944103;28;20195;-71
2021/05/03 05:48:23;;;;;;;9.75;5.32;;;;;;;6.68;79.15;97030.47;4953619;28;20697;-73
2021/05/03 05:50:50;;;;;;;7.95;5.25;;;;;;;6.66;76.70;97032.28;4947762;28;20191;-73
2021/05/03 05:53:17;;;;;;;8.07;4.85;;;;;;;6.57;76.22;97017.13;4953700;28;20530;-72
2021/05/03 05:55:44;;;;;;;7.68;4.65;;;;;;;6.68;76.41;97030.47;4943831;28;20611;-70
2021/05/03 05:58:11;;;;;;;12.60;5.88;;;;;;;6.78;76.75;97036.97;4947079;28;20198;-72
2021/05/03 06:00:39;;;;;;;13.98;5.63;;;;;;;6.96;76.84;97025.88;4945767;28;20226;-72
2021/05/03 06:03:06;;;;;;;7.32;5.00;;;;;;;7.01;76.34;97036.88;4948532;28;20234;-73
2021/05/03 06:05:33;;;;;;;8.60;4.70;;;;;;;7.04;75.13;97034.16;4945614;28;20254;-71
2021/05/03 06:08:01;;;;;;;8.05;4.65;;;;;;;7.11;74.97;97025.22;4940371;28;20245;-71
2021/05/03 06:10:28;;;;;;;11.65;4.03;;;;;;;7.13;74.19;97033.78;4942497;28;20289;-71
2021/05/03 06:12:55;;;;;;;7.07;4.38;;;;;;;7.20;74.62;97030.03;4945215;28;20234;-71
2021/05/03 06:15:22;;;;;;;11.15;5.07;;;;;;;7.25;74.52;97033.25;4944735;28;20230;-76
2021/05/03 06:17:49;;;;;;;10.85;5.70;;;;;;;7.36;73.97;97028.50;4931895;28;20697;-72
2021/05/03 06:20:16;;;;;;;8.55;5.72;;;;;;;7.56;73.55;97039.66;4943020;28;20544;-72
2021/05/03 06:22:43;;;;;;;8.57;5.53;;;;;;;7.54;73.72;97038.91;4943773;28;20214;-70
2021/05/03 06:25:11;;;;;;;19.42;11.45;;;;;;;7.64;73.67;97045.34;4937994;28;20686;-71
2021/05/03 06:27:39;;;;;;;9.05;5.85;;;;;;;7.81;73.36;97048.03;4945802;28;20207;-71
2021/05/03 06:30:08;;;;;;;7.20;4.70;;;;;;;7.97;73.48;97046.47;4937382;28;20215;-71
2021/05/03 06:32:35;;;;;;;9.70;5.75;;;;;;;8.13;72.85;97049.22;4945418;28;20206;-71
2021/05/03 06:35:02;;;;;;;11.27;5.70;;;;;;;8.33;72.06;97045.69;4946822;28;20233;-71
2021/05/03 06:37:29;;;;;;;8.95;5.60;;;;;;;8.63;71.93;97044.25;4937358;28;20726;-70
2021/05/03 06:39:56;;;;;;;18.00;5.43;;;;;;;8.66;71.12;97040.69;4932321;28;20227;-71
2021/05/03 06:42:22;;;;;;;13.30;6.10;;;;;;;8.76;71.12;97047.09;4943202;28;20841;-75
2021/05/03 06:44:50;;;;;;;19.57;5.80;;;;;;;8.88;70.97;97044.78;4936806;28;20467;-71
2021/05/03 06:47:18;;;;;;;9.60;5.10;;;;;;;9.01;70.68;97048.44;4943103;28;20840;-70
2021/05/03 06:49:45;;;;;;;8.73;5.63;;;;;;;9.04;69.25;97037.94;4938051;28;21071;-71
2021/05/03 06:52:12;;;;;;;10.50;4.20;;;;;;;9.31;69.00;97054.72;4948827;28;20474;-77
2021/05/03 06:54:41;;;;;;;6.63;4.77;;;;;;;9.36;67.88;97057.94;4941613;28;20509;-70
2021/05/03 06:57:09;;;;;;;10.30;5.67;;;;;;;9.45;68.19;97057.47;4937562;28;20777;-69
2021/05/03 06:59:35;;;;;;;6.30;4.33;;;;;;;9.53;66.89;97060.53;4942738;28;20466;-71
2021/05/03 07:02:05;;;;;;;14.30;7.77;;;;;;;9.72;66.93;97058.69;4944349;28;21001;-71
2021/05/03 07:04:33;;;;;;;9.10;4.30;;;;;;;9.63;63.76;97066.97;4928541;28;623828;-70
2021/05/03 07:07:00;;;;;;;7.77;4.63;;;;;;;9.88;64.07;97056.97;4945178;28;20194;-70
2021/05/03 07:09:27;;;;;;;4.87;3.57;;;;;;;10.06;63.30;97056.06;4935737;28;20467;-70
2021/05/03 07:11:55;;;;;;;10.67;5.13;;;;;;;10.20;62.79;97056.19;4938298;28;20828;-70
2021/05/03 07:14:22;;;;;;;6.20;3.50;;;;;;;10.43;61.14;97050.59;4949952;28;20474;-69
2021/05/03 07:16:49;;;;;;;6.03;4.23;;;;;;;10.40;59.11;97066.34;4937006;28;20443;-70
2021/05/03 07:19:16;;;;;;;9.90;4.17;;;;;;;10.30;59.30;97059.09;4918237;28;20771;-76
2021/05/03 07:21:44;;;;;;;11.33;4.67;;;;;;;10.59;59.33;97056.63;4937725;28;20433;-71
2021/05/03 07:24:11;;;;;;;6.57;4.87;;;;;;;10.72;59.37;97055.03;4948620;28;20977;-70
2021/05/03 07:26:41;;;;;;;8.73;5.57;;;;;;;10.75;57.72;97062.66;4945802;28;20450;-71
2021/05/03 07:29:08;;;;;;;17.33;6.07;;;;;;;10.71;57.32;97055.97;4937005;28;20502;-71
2021/05/03 07:31:35;;;;;;;6.60;3.80;;;;;;;10.83;57.95;97057.88;4937963;28;20443;-70
2021/05/03 07:34:03;;;;;;;9.43;4.77;;;;;;;10.59;58.48;97059.22;4941591;28;21028;-71
2021/05/03 07:36:31;;;;;;;14.40;4.90;;;;;;;10.46;59.82;97060.81;4916290;29;20450;-71
2021/05/03 07:38:57;;;;;;;7.93;3.90;;;;;;;10.53;60.44;97056.97;4946527;28;20855;-70
2021/05/03 07:41:25;;;;;;;9.87;5.40;;;;;;;10.78;60.26;97062.50;4948298;28;20517;-71
2021/05/03 07:43:52;;;;;;;6.60;3.80;;;;;;;10.88;59.11;97063.69;4944167;28;20796;-71
2021/05/03 07:46:24;;;;;;;7.03;4.70;;;;;;;10.85;58.45;97066.47;4936981;28;20445;-76
2021/05/03 07:48:52;;;;;;;7.57;4.50;;;;;;;10.94;58.30;97062.47;4939607;28;20474;-70
2021/05/03 07:51:19;;;;;;;7.90;4.23;;;;;;;11.11;59.05;97059.78;4944614;28;20910;-70
2021/05/03 07:53:47;;;;;;;7.80;4.60;;;;;;;11.02;57.48;97066.34;4943649;28;20466;-69
2021/05/03 07:56:15;;;;;;;11.20;5.37;;;;;;;10.89;57.23;97064.53;4946248;28;20824;-75
2021/05/03 07:58:42;;;;;;;6.43;3.73;;;;;;;11.04;57.72;97068.88;4941044;28;20546;-70
2021/05/03 08:01:09;;;;;;;8.47;4.60;;;;;;;11.39;58.45;97065.94;4943657;28;20467;-72
2021/05/03 08:03:38;;;;;;;7.10;4.07;;;;;;;11.71;56.24;97067.53;4928465;28;20456;-71
2021/05/03 08:06:07;;;;;;;8.07;4.10;;;;;;;11.56;55.65;97060.56;4904719;29;20850;-72
2021/05/03 08:08:34;;;;;;;13.50;4.73;;;;;;;11.68;56.32;97072.09;4907488;29;20444;-70
2021/05/03 08:11:02;;;;;;;10.40;4.27;;;;;;;11.87;55.97;97068.28;4908595;29;20445;-70
2021/05/03 08:13:29;;;;;;;7.30;3.93;;;;;;;11.63;55.26;97064.53;4904868;29;21001;-72
2021/05/03 08:15:59;;;;;;;9.33;4.63;;;;;;;11.23;55.22;97066.91;4917028;29;20845;-70
2021/05/03 08:18:26;;;;;;;7.30;4.50;;;;;;;11.15;55.75;97066.50;4905010;29;20771;-71
2021/05/03 08:20:59;;;;;;;8.70;4.40;;;;;;;10.93;57.06;97068.63;4900578;29;20831;-70
2021/05/03 08:23:51;;;;;;;6.47;4.50;;;;;;;10.82;57.16;97066.63;4900733;29;20440;-73
2021/05/03 08:26:18;;;;;;;9.20;4.57;;;;;;;10.96;58.07;97066.69;4907718;29;20470;-72
2021/05/03 08:28:48;;;;;;;7.20;4.30;;;;;;;11.18;57.14;97061.09;4902595;29;20460;-71
2021/05/03 08:31:15;;;;;;;8.20;3.97;;;;;;;11.35;56.51;97069.63;4911556;29;20900;-71
2021/05/03 08:33:45;;;;;;;15.93;4.97;;;;;;;11.06;55.70;97062.63;4889131;29;20483;-72
2021/05/03 08:36:12;;;;;;;5.67;4.17;;;;;;;10.93;56.69;97066.03;4904470;29;20987;-72
2021/05/03 08:38:39;;;;;;;5.20;3.73;;;;;;;11.01;56.45;97059.47;4912094;29;21037;-71
2021/05/03 08:41:06;;;;;;;7.03;4.50;;;;;;;10.87;57.52;97067.22;4909451;29;20747;-72
2021/05/03 08:43:40;;;;;;;7.10;4.10;;;;;;;10.95;57.77;97072.81;4901028;29;20807;-71
2021/05/03 08:46:09;;;;;;;9.40;4.73;;;;;;;11.13;58.34;97063.97;4907732;29;20934;-72
2021/05/03 08:48:39;;;;;;;17.67;4.70;;;;;;;11.26;57.56;97053.72;4901416;29;20507;-73
2021/05/03 08:51:14;;;;;;;10.80;5.07;;;;;;;11.72;56.08;97061.38;4902047;29;20440;-72
2021/05/03 08:53:43;;;;;;;9.03;4.13;;;;;;;12.08;55.48;97072.22;4908159;29;20550;-72
2021/05/03 08:56:10;;;;;;;8.20;4.57;;;;;;;11.82;54.43;97064.28;4908764;29;20444;-73
2021/05/03 08:58:39;;;;;;;6.00;4.40;;;;;;;11.98;51.85;97065.91;4899313;28;20471;-73
2021/05/03 09:01:07;;;;;;;8.70;4.80;;;;;;;12.12;51.64;97052.88;4907185;29;20916;-73
2021/05/03 09:03:35;;;;;;;8.47;4.37;;;;;;;11.97;53.05;97059.00;4915584;28;21163;-71
2021/05/03 09:06:04;;;;;;;5.60;3.80;;;;;;;11.75;50.94;97052.53;4930198;29;20935;-72
2021/05/03 09:08:31;;;;;;;4.90;3.27;;;;;;;12.03;50.95;97057.78;4921455;29;20945;-72
2021/05/03 09:10:59;;;;;;;7.47;3.93;;;;;;;11.73;53.07;97063.09;4925527;29;20842;-73
2021/05/03 09:13:27;;;;;;;8.40;4.00;;;;;;;11.88;54.84;97062.19;4939865;28;20463;-71
2021/05/03 09:16:14;;;;;;;11.30;4.40;;;;;;;11.88;55.91;97058.72;4951597;28;20490;-73
2021/05/03 09:18:42;;;;;;;11.60;4.20;;;;;;;11.76;54.97;97056.81;4945360;28;21154;-74
2021/05/03 09:21:19;;;;;;;7.83;4.33;;;;;;;11.83;55.31;97047.72;4948435;28;20964;-72
2021/05/03 09:24:00;;;;;;;6.90;3.70;;;;;;;12.08;54.42;97051.34;4941640;28;20956;-73
2021/05/03 09:26:40;;;;;;;6.20;3.80;;;;;;;12.19;55.09;97043.72;4936852;28;20906;-75
2021/05/03 09:29:35;;;;;;;5.27;3.43;;;;;;;12.66;53.56;97041.63;4943445;28;20473;-73
2021/05/03 09:32:09;;;;;;;6.50;3.77;;;;;;;12.97;51.87;97039.59;4909357;28;20609;-72
2021/05/03 09:34:39;;;;;;;5.93;3.07;;;;;;;12.28;50.69;97043.16;4942435;28;20843;-72
2021/05/03 09:37:35;;;;;;;10.60;3.77;;;;;;;12.60;51.93;97030.72;4944465;28;20968;-71
2021/05/03 09:40:11;;;;;;;5.23;3.93;;;;;;;12.66;49.23;97025.13;4942184;28;20517;-72
2021/05/03 09:43:07;;;;;;;19.33;7.67;;;;;;;12.52;50.61;97031.19;4940361;28;20453;-72
2021/05/03 09:45:36;;;;;;;9.50;2.90;;;;;;;12.00;50.85;97032.72;4943214;28;20957;-71
2021/05/03 09:48:04;;;;;;;4.43;2.90;;;;;;;12.10;52.17;97031.25;4939276;28;20805;-71
2021/05/03 09:50:32;;;;;;;7.10;3.30;;;;;;;12.17;51.85;97034.31;4938942;28;20938;-72
2021/05/03 09:53:06;;;;;;;5.27;3.03;;;;;;;12.29;51.52;97038.78;4949134;28;20557;-72
2021/05/03 09:55:38;;;;;;;9.23;3.30;;;;;;;12.26;50.69;97039.81;4938362;28;21229;-72
2021/05/03 09:58:17;;;;;;;5.90;3.13;;;;;;;12.38;50.16;97028.59;4943459;28;20764;-74
2021/05/03 10:00:46;;;;;;;10.73;3.10;;;;;;;13.02;50.01;97026.25;4941450;28;20473;-74
2021/05/03 10:03:36;;;;;;;4.90;2.57;;;;;;;13.55;48.29;97026.16;4949903;28;20478;-75
2021/05/03 10:06:06;;;;;;;3.73;2.97;;;;;;;13.39;47.19;97010.66;4943152;28;20454;-73
2021/05/03 10:08:33;;;;;;;4.20;2.70;;;;;;;13.60;47.04;97024.09;4951255;28;20481;-75
2021/05/03 10:11:02;;;;;;;5.50;2.60;;;;;;;13.42;48.16;97026.16;4940765;28;20466;-75
2021/05/03 10:13:29;;;;;;;3.37;2.93;;;;;;;13.40;48.70;97021.94;4942889;28;20529;-74
2021/05/03 10:15:58;;;;;;;8.63;3.80;;;;;;;13.29;49.00;97025.28;4943628;28;20447;-74
2021/05/03 10:18:27;;;;;;;11.40;3.17;;;;;;;13.17;49.47;97027.84;4947164;28;20450;-74
2021/05/03 10:20:59;;;;;;;3.83;2.60;;;;;;;12.96;47.31;97029.25;4948428;28;20914;-74
2021/05/03 10:23:28;;;;;;;4.13;2.80;;;;;;;12.65;48.29;97029.50;4936416;28;20466;-74
2021/05/03 10:25:58;;;;;;;3.40;2.57;;;;;;;12.73;49.62;97029.84;4938235;28;20489;-74
2021/05/03 10:28:25;;;;;;;7.17;2.80;;;;;;;13.09;48.23;97022.28;4944253;28;20427;-75
2021/05/03 10:30:57;;;;;;;4.80;2.50;;;;;;;13.27;45.24;97011.47;4938317;28;20784;-75
2021/05/03 10:33:35;;;;;;;5.53;2.20;;;;;;;13.89;44.57;97007.25;4944040;28;20470;-73
2021/05/03 10:36:05;;;;;;;7.17;2.80;;;;;;;13.88;45.53;97002.97;4935872;28;20445;-74
2021/05/03 10:38:37;;;;;;;5.57;2.43;;;;;;;14.02;46.29;96995.81;4943605;28;20508;-75
2021/05/03 10:41:22;;;;;;;3.83;2.60;;;;;;;14.12;46.23;96998.66;4943080;28;20932;-75
2021/05/03 10:43:50;;;;;;;3.63;2.47;;;;;;;14.28;45.73;96988.81;4939812;28;21035;-74
2021/05/03 10:49:36;;;;;;;13.03;6.77;;;;;;;14.56;43.65;96988.53;4936290;28;20485;-75
2021/05/03 10:52:06;;;;;;;6.47;2.30;;;;;;;13.69;42.44;96981.59;4945526;28;20986;-74
2021/05/03 10:54:49;;;;;;;3.37;2.00;;;;;;;13.54;44.29;96986.09;4944821;28;20561;-73
2021/05/03 10:57:37;;;;;;;5.47;2.43;;;;;;;13.48;43.95;96977.84;4943316;28;20990;-75
2021/05/03 11:00:28;;;;;;;4.43;1.90;;;;;;;13.70;46.53;96975.47;4941842;28;21207;-75
2021/05/03 11:02:55;;;;;;;5.57;2.00;;;;;;;13.53;44.85;96968.75;4939121;28;20450;-76
2021/05/03 11:05:25;;;;;;;2.97;1.90;;;;;;;13.47;44.63;96966.53;4942255;28;20980;-75
2021/05/03 11:08:31;;;;;;;6.03;2.40;;;;;;;13.35;44.82;96977.00;4938818;28;20500;-74
2021/05/03 11:11:18;;;;;;;9.33;2.00;;;;;;;13.15;44.69;96970.47;4944272;28;20469;-74
2021/05/03 11:13:57;;;;;;;7.37;2.13;;;;;;;13.00;44.83;96970.63;4947427;28;21016;-75
2021/05/03 11:16:50;;;;;;;2.57;1.93;;;;;;;13.47;44.14;96970.91;4918595;28;20447;-76
2021/05/03 11:19:38;;;;;;;7.27;2.10;;;;;;;14.07;45.23;96945.81;4937353;28;20795;-74
2021/05/03 11:22:07;;;;;;;2.90;1.77;;;;;;;14.18;43.05;96959.00;4950504;28;20435;-74
2021/05/03 11:24:45;;;;;;;4.60;2.20;;;;;;;14.04;43.77;96954.69;4936949;28;20807;-74
2021/05/03 11:27:16;;;;;;;5.17;2.40;;;;;;;13.78;43.72;96955.66;4937917;28;20445;-74
2021/05/03 11:29:46;;;;;;;5.60;2.30;;;;;;;13.87;44.75;96948.97;4941602;28;20477;-73
2021/05/03 11:32:14;;;;;;;4.07;2.40;;;;;;;13.50;42.39;96955.84;4946757;28;20431;-74
2021/05/03 11:34:58;;;;;;;3.10;2.37;;;;;;;13.07;44.20;96948.38;4949168;28;20849;-75
2021/05/03 11:37:35;;;;;;;4.60;2.13;;;;;;;12.80;45.78;96937.09;4942706;28;20441;-73
2021/05/03 11:40:13;;;;;;;3.17;2.07;;;;;;;12.78;46.63;96937.22;4945576;28;20465;-74
2021/05/03 11:43:01;;;;;;;7.73;1.80;;;;;;;12.98;47.31;96935.94;4939378;28;20430;-75
2021/05/03 11:45:29;;;;;;;4.33;2.03;;;;;;;13.59;45.86;96933.47;4943366;28;20986;-75
2021/05/03 11:47:57;;;;;;;2.47;1.70;;;;;;;14.21;42.54;96930.81;4939531;28;20450;-74
2021/05/03 11:50:25;;;;;;;3.10;2.43;;;;;;;13.56;43.57;96938.94;4944475;28;20814;-74
2021/05/03 11:52:52;;;;;;;2.13;1.83;;;;;;;13.16;43.01;96934.69;4951117;28;20466;-75
2021/05/03 11:55:22;;;;;;;3.10;2.10;;;;;;;12.94;43.08;96917.00;4947607;28;20544;-73
2021/05/03 11:57:50;;;;;;;6.30;1.90;;;;;;;13.21;44.20;96924.78;4919603;28;20446;-74
2021/05/03 12:00:19;;;;;;;5.60;3.17;;;;;;;13.71;42.31;96917.78;4947007;28;21009;-74
2021/05/03 12:02:46;;;;;;;10.93;4.77;;;;;;;15.00;42.63;96913.59;4944039;28;20517;-76